Time;durP1;ratioP1;P1;durP2;ratioP2;P2;SDS_P1;SDS_P2;PMS_P1;PMS_P2;Temp;Humidity;BMP_temperature;BMP_pressure;BME280_temperature;BME280_humidity;BME280_pressure;Samples;Min_cycle;Max_cycle;Signal;HPM_P1;HPM_P2
2024/01/03 00:01:05;;;;;;;2.60;1.40;;;9.50;99.90;;;9.86;100.00;95969.06;5023995;28;20461;-77
2024/01/03 00:03:34;;;;;;;4.17;1.20;;;9.60;99.90;;;9.88;100.00;95967.03;5022192;28;20459;-77
2024/01/03 00:06:06;;;;;;;3.53;1.30;;;9.50;99.90;;;9.84;100.00;95981.56;5022545;28;21043;-78
2024/01/03 00:08:38;;;;;;;2.70;0.90;;;9.60;99.90;;;9.82;100.00;95978.41;5024879;28;20500;-76
2024/01/03 00:11:08;;;;;;;2.60;1.27;;;9.50;99.90;;;9.82;100.00;95988.84;5022175;28;20552;-76
2024/01/03 00:14:08;;;;;;;1.77;1.20;;;9.40;99.90;;;9.83;100.00;95993.03;5022000;28;20458;-76
2024/01/03 00:16:40;;;;;;;1.67;0.90;;;9.40;99.90;;;9.86;100.00;96001.19;5022945;28;20467;-77
2024/01/03 00:19:20;;;;;;;4.90;1.10;;;9.50;99.90;;;9.86;100.00;96000.38;5022076;28;20520;-76
2024/01/03 00:21:51;;;;;;;4.40;1.87;;;9.50;99.90;;;9.89;100.00;96013.00;5023722;28;20461;-77
2024/01/03 00:24:20;;;;;;;2.43;1.00;;;9.50;99.90;;;9.88;100.00;96008.78;5021744;28;20463;-76
2024/01/03 00:26:49;;;;;;;4.37;1.20;;;9.50;99.90;;;9.84;100.00;96020.72;5022283;28;20462;-77
2024/01/03 00:29:53;;;;;;;3.37;0.93;;;9.50;99.90;;;9.79;100.00;96031.09;5022827;28;20467;-77
2024/01/03 00:32:26;;;;;;;1.57;1.00;;;9.40;99.90;;;9.77;100.00;96033.91;5022757;28;20460;-77
2024/01/03 00:34:59;;;;;;;2.90;1.27;;;9.30;99.90;;;9.79;100.00;96031.09;5022094;28;20467;-77
2024/01/03 00:37:34;;;;;;;1.57;0.90;;;9.40;99.90;;;9.77;100.00;96030.50;5023350;28;20466;-76
2024/01/03 00:40:17;;;;;;;0.80;0.70;;;9.40;99.90;;;9.71;100.00;96047.09;5024510;28;21004;-76
2024/01/03 00:42:45;;;;;;;2.40;1.03;;;9.40;99.90;;;9.70;100.00;96037.66;5021150;28;20486;-77
2024/01/03 00:45:14;;;;;;;2.07;1.03;;;9.40;99.90;;;9.64;100.00;96057.66;5021193;28;20561;-77
2024/01/03 00:47:42;;;;;;;1.73;0.97;;;9.30;99.90;;;9.62;100.00;96044.03;5022456;28;20492;-76
2024/01/03 00:50:11;;;;;;;5.67;1.20;;;9.20;99.90;;;9.63;100.00;96047.44;5022983;28;20544;-76
2024/01/03 00:52:42;;;;;;;2.00;0.90;;;9.20;99.90;;;9.66;100.00;96044.38;5022999;28;22223;-77
2024/01/03 00:55:13;;;;;;;7.63;1.67;;;9.20;99.90;;;9.66;100.00;96045.16;5021996;28;20493;-76
2024/01/03 00:57:42;;;;;;;1.67;1.00;;;9.20;99.90;;;9.65;100.00;96045.41;5022309;28;20466;-77
2024/01/03 01:00:12;;;;;;;3.27;0.90;;;9.20;99.90;;;9.67;100.00;96031.09;5021888;28;20508;-77
2024/01/03 01:02:41;;;;;;;3.83;1.00;;;9.20;99.90;;;9.65;100.00;96046.19;5020083;28;20468;-78
2024/01/03 01:05:09;;;;;;;3.20;1.10;;;9.20;99.90;;;9.67;100.00;96053.78;5022572;28;20474;-76
2024/01/03 01:07:38;;;;;;;2.33;1.13;;;9.30;99.90;;;9.68;100.00;96044.94;5021873;28;20462;-76
2024/01/03 01:10:08;;;;;;;3.90;1.37;;;9.30;99.90;;;9.70;100.00;96050.72;5022681;28;20556;-77
2024/01/03 01:12:37;;;;;;;3.40;1.23;;;9.30;99.90;;;9.73;100.00;96058.88;5021416;28;20451;-76
2024/01/03 01:15:06;;;;;;;4.53;1.40;;;9.30;99.90;;;9.74;100.00;96057.06;5022578;28;20457;-77
2024/01/03 01:17:35;;;;;;;12.67;1.60;;;9.30;99.90;;;9.74;100.00;96064.91;5020195;28;20457;-76
2024/01/03 01:20:04;;;;;;;4.20;1.57;;;9.30;99.90;;;9.72;100.00;96061.72;5022103;28;20504;-77
2024/01/03 01:22:32;;;;;;;3.83;1.70;;;9.30;99.90;;;9.69;100.00;96056.94;5024341;28;20493;-78
2024/01/03 01:25:01;;;;;;;7.57;1.80;;;9.30;99.90;;;9.72;100.00;96056.50;5022039;28;20479;-77
2024/01/03 01:27:31;;;;;;;1.93;0.97;;;9.40;99.90;;;9.76;100.00;96062.84;5025002;28;20463;-76
2024/01/03 01:29:59;;;;;;;4.80;1.40;;;9.40;99.90;;;9.74;100.00;96049.25;5023570;28;20474;-76
2024/01/03 01:32:28;;;;;;;5.83;1.60;;;9.40;99.90;;;9.73;100.00;96042.41;5024964;28;20461;-76
2024/01/03 01:34:56;;;;;;;3.37;1.20;;;9.40;99.90;;;9.71;100.00;96052.31;5024652;28;20484;-76
2024/01/03 01:37:25;;;;;;;1.93;1.10;;;9.40;99.90;;;9.69;100.00;96062.16;5023968;28;20960;-78
2024/01/03 01:39:53;;;;;;;9.00;1.57;;;9.40;99.90;;;9.68;100.00;96071.03;5023219;28;20505;-77
2024/01/03 01:42:22;;;;;;;6.20;1.67;;;9.30;99.90;;;9.67;100.00;96059.81;5025233;28;21073;-76
2024/01/03 01:44:52;;;;;;;7.40;1.43;;;9.30;99.90;;;9.67;100.00;96054.59;5026192;28;20512;-76
2024/01/03 01:47:21;;;;;;;6.00;2.00;;;9.30;99.90;;;9.71;100.00;96074.00;5023972;28;20462;-76
2024/01/03 01:49:52;;;;;;;5.00;1.63;;;9.30;99.90;;;9.70;100.00;96085.44;5024712;28;20477;-76
2024/01/03 01:52:22;;;;;;;9.83;2.00;;;9.30;99.90;;;9.67;100.00;96090.31;5024643;28;20463;-76
2024/01/03 01:54:51;;;;;;;7.03;1.63;;;9.30;99.90;;;9.68;100.00;96086.69;5024052;28;20478;-76
2024/01/03 01:57:21;;;;;;;10.90;1.23;;;9.30;99.90;;;9.70;100.00;96095.88;5021716;28;20473;-77
2024/01/03 01:59:50;;;;;;;20.73;2.20;;;9.20;99.90;;;9.70;100.00;96108.94;5020717;28;20581;-76
2024/01/03 02:02:21;;;;;;;5.73;1.70;;;9.20;99.90;;;9.69;100.00;96088.25;5019566;28;20457;-77
2024/01/03 02:04:50;;;;;;;8.27;1.77;;;9.30;99.90;;;9.69;100.00;96096.09;5022264;28;20553;-77
2024/01/03 02:07:19;;;;;;;7.63;1.80;;;9.30;99.90;;;9.66;100.00;96109.59;5020293;28;20461;-77
2024/01/03 02:09:48;;;;;;;3.67;1.40;;;9.30;99.90;;;9.64;100.00;96098.63;5021506;28;20478;-77
2024/01/03 02:12:17;;;;;;;8.53;1.00;;;9.30;99.90;;;9.62;100.00;96098.81;5021593;28;20849;-77
2024/01/03 02:14:45;;;;;;;4.53;1.40;;;9.30;99.90;;;9.61;100.00;96082.38;5019786;28;20461;-77
2024/01/03 02:17:13;;;;;;;5.07;1.50;;;9.30;99.90;;;9.60;100.00;96086.03;5023201;28;20478;-76
2024/01/03 02:19:43;;;;;;;2.50;1.27;;;9.30;99.90;;;9.59;100.00;96081.81;5022814;28;20478;-77
2024/01/03 02:22:13;;;;;;;10.50;4.90;;;9.20;99.90;;;9.56;100.00;96084.91;5022836;28;20982;-77
2024/01/03 02:24:42;;;;;;;4.70;1.80;;;9.20;99.90;;;9.49;100.00;96099.88;5022892;28;20475;-76
2024/01/03 02:27:10;;;;;;;3.10;1.30;;;9.20;99.90;;;9.49;100.00;96089.44;5023865;28;20477;-76
2024/01/03 02:29:39;;;;;;;5.60;1.37;;;9.10;99.90;;;9.51;100.00;96089.22;5022079;28;20474;-76
2024/01/03 02:32:08;;;;;;;6.43;1.60;;;9.20;99.90;;;9.51;100.00;96087.38;5022492;28;20478;-77
2024/01/03 02:34:36;;;;;;;18.83;2.53;;;9.10;99.90;;;9.51;100.00;96092.59;5024830;28;20890;-77
2024/01/03 02:37:09;;;;;;;6.40;1.10;;;9.10;99.90;;;9.51;100.00;96095.22;5023927;28;20539;-76
2024/01/03 02:39:38;;;;;;;4.50;1.47;;;9.20;99.90;;;9.56;100.00;96092.72;5023556;28;20466;-77
2024/01/03 02:42:07;;;;;;;9.30;1.67;;;9.10;99.90;;;9.60;100.00;96088.63;5023730;28;20536;-77
2024/01/03 02:44:35;;;;;;;4.30;1.30;;;9.20;99.90;;;9.64;100.00;96096.81;5021596;28;20457;-76
2024/01/03 02:47:04;;;;;;;6.37;1.43;;;9.20;99.90;;;9.66;100.00;96093.94;5025330;28;21105;-77
2024/01/03 02:49:33;;;;;;;7.73;1.20;;;9.30;99.90;;;9.68;100.00;96099.75;5025162;28;20466;-76
2024/01/03 02:52:01;;;;;;;5.87;1.63;;;9.30;99.90;;;9.67;100.00;96100.75;5024207;28;20481;-76
2024/01/03 02:54:30;;;;;;;4.77;1.83;;;9.30;99.90;;;9.68;100.00;96092.72;5024174;28;20516;-76
2024/01/03 02:57:00;;;;;;;1.77;1.07;;;9.30;99.90;;;9.68;100.00;96086.69;5021327;28;20509;-76
2024/01/03 02:59:28;;;;;;;1.87;1.13;;;9.30;99.90;;;9.69;100.00;96098.69;5020999;28;20472;-76
2024/01/03 03:01:58;;;;;;;5.67;1.50;;;9.30;99.90;;;9.62;100.00;96104.03;5023117;28;20500;-76
2024/01/03 03:04:26;;;;;;;4.77;1.47;;;9.10;99.90;;;9.62;100.00;96101.44;5021973;28;21312;-76
2024/01/03 03:06:55;;;;;;;9.70;1.97;;;9.10;99.90;;;9.63;100.00;96094.41;5023696;28;20459;-76
2024/01/03 03:09:23;;;;;;;5.53;1.50;;;9.20;99.90;;;9.59;100.00;96094.06;5023513;28;20805;-76
2024/01/03 03:11:52;;;;;;;6.27;1.50;;;9.20;99.90;;;9.60;100.00;96095.66;5022993;28;20457;-77
2024/01/03 03:14:22;;;;;;;2.93;1.37;;;9.20;99.90;;;9.58;100.00;96082.03;5023682;28;20469;-76
2024/01/03 03:16:51;;;;;;;6.57;1.80;;;9.20;99.90;;;9.60;100.00;96082.63;5022928;28;20860;-76
2024/01/03 03:19:19;;;;;;;4.37;1.90;;;9.20;99.90;;;9.64;100.00;96080.34;5023362;28;20472;-76
2024/01/03 03:21:48;;;;;;;4.40;1.50;;;9.20;99.90;;;9.63;100.00;96099.63;5026688;28;20507;-76
2024/01/03 03:24:17;;;;;;;5.30;2.23;;;9.20;99.90;;;9.65;100.00;96103.59;5026672;28;20466;-77
2024/01/03 03:26:45;;;;;;;6.90;1.93;;;9.20;99.90;;;9.66;100.00;96101.78;5026948;28;20457;-76
2024/01/03 03:29:14;;;;;;;10.73;1.53;;;9.20;99.90;;;9.66;100.00;96093.94;5028063;28;20525;-76
2024/01/03 03:31:44;;;;;;;5.80;1.67;;;9.30;99.90;;;9.66;100.00;96080.91;5025381;28;20498;-76
2024/01/03 03:34:12;;;;;;;5.27;1.40;;;9.30;99.90;;;9.66;100.00;96084.31;5027713;28;20458;-77
2024/01/03 03:36:41;;;;;;;7.40;1.50;;;9.30;99.90;;;9.64;100.00;96088.19;5027354;28;20532;-76
2024/01/03 03:39:09;;;;;;;6.73;1.57;;;9.30;99.90;;;9.65;100.00;96108.03;5025445;28;21033;-75
2024/01/03 03:41:38;;;;;;;10.47;1.80;;;9.30;99.90;;;9.65;100.00;96095.00;5025467;28;20501;-76
2024/01/03 03:44:07;;;;;;;14.10;2.10;;;9.20;99.90;;;9.67;100.00;96095.53;5027198;28;20473;-77
2024/01/03 03:46:35;;;;;;;7.77;2.30;;;9.30;99.90;;;9.68;100.00;96089.31;5026618;28;20456;-77
2024/01/03 03:49:05;;;;;;;6.53;1.73;;;9.30;99.90;;;9.67;100.00;96100.75;5025728;28;20466;-77
2024/01/03 03:51:34;;;;;;;10.07;1.87;;;9.30;99.90;;;9.67;100.00;96112.00;5027570;28;20473;-76
2024/01/03 03:54:03;;;;;;;6.60;1.70;;;9.30;99.90;;;9.68;100.00;96118.00;5024936;28;21206;-76
2024/01/03 03:56:31;;;;;;;6.60;2.13;;;9.30;99.90;;;9.68;100.00;96102.34;5026083;28;20900;-76
2024/01/03 03:59:00;;;;;;;8.93;1.80;;;9.30;99.90;;;9.69;100.00;96098.69;5023439;28;20469;-77
2024/01/03 04:01:28;;;;;;;15.70;1.70;;;9.30;99.90;;;9.69;100.00;96098.69;5021016;28;21012;-77
2024/01/03 04:03:57;;;;;;;8.47;1.50;;;9.30;99.90;;;9.70;100.00;96100.28;5021369;28;20466;-76
2024/01/03 04:06:27;;;;;;;46.07;20.77;;;9.30;99.90;;;9.70;100.00;96106.31;5022584;28;20473;-75
2024/01/03 04:08:56;;;;;;;17.63;1.90;;;9.30;99.90;;;9.67;100.00;96092.94;5020174;28;20472;-76
2024/01/03 04:11:24;;;;;;;5.13;1.40;;;9.40;99.90;;;9.66;100.00;96110.41;5024236;28;20461;-77
2024/01/03 04:13:53;;;;;;;7.60;1.77;;;9.40;99.90;;;9.64;100.00;96090.78;5024555;28;20964;-77
2024/01/03 04:16:21;;;;;;;13.13;1.90;;;9.30;99.90;;;9.69;100.00;96101.31;5023317;28;20465;-76
2024/01/03 04:18:50;;;;;;;10.00;2.10;;;9.30;99.90;;;9.69;100.00;96089.06;5022233;28;20467;-77
2024/01/03 04:21:18;;;;;;;11.47;2.47;;;9.40;99.90;;;9.71;100.00;96096.69;5023208;28;20868;-76
2024/01/03 04:23:48;;;;;;;199.10;95.57;;;9.30;99.90;;;9.72;100.00;96099.03;5018445;28;20489;-76
2024/01/03 04:26:17;;;;;;;11.03;3.53;;;9.20;99.90;;;9.72;100.00;96098.28;5022582;28;20498;-76
2024/01/03 04:28:45;;;;;;;9.47;1.97;;;9.30;99.90;;;9.70;100.00;96095.09;5023624;28;21234;-76
2024/01/03 04:31:13;;;;;;;6.57;1.47;;;9.30;99.90;;;9.71;100.00;96101.91;5022041;28;21055;-76
2024/01/03 04:33:42;;;;;;;12.90;1.90;;;9.40;99.90;;;9.69;100.00;96101.31;5023369;28;20985;-76
2024/01/03 04:36:12;;;;;;;5.97;1.40;;;9.40;99.90;;;9.70;100.00;96110.75;5024198;28;20489;-76
2024/01/03 04:38:40;;;;;;;9.93;2.03;;;9.30;99.90;;;9.70;100.00;96100.28;5025881;28;20510;-77
2024/01/03 04:41:10;;;;;;;14.57;2.17;;;9.30;99.90;;;9.72;100.00;96122.53;5026347;28;20525;-76
2024/01/03 04:43:39;;;;;;;5.23;1.93;;;9.40;99.90;;;9.72;100.00;96113.94;5025058;28;20475;-76
2024/01/03 04:46:07;;;;;;;8.70;1.77;;;9.40;99.90;;;9.73;100.00;96121.50;5020789;28;20469;-77
2024/01/03 04:48:36;;;;;;;6.57;2.03;;;9.40;99.90;;;9.73;100.00;96115.50;5021231;28;20458;-77
2024/01/03 04:51:04;;;;;;;10.20;1.60;;;9.40;99.90;;;9.72;100.00;96116.53;5021001;28;20485;-77
2024/01/03 04:53:33;;;;;;;12.90;2.10;;;9.30;99.90;;;9.72;100.00;96108.72;5022719;28;20490;-77
2024/01/03 04:56:02;;;;;;;102.30;45.70;;;9.30;99.90;;;9.72;100.00;96112.09;5020127;28;20454;-76
2024/01/03 04:58:32;;;;;;;18.13;2.40;;;9.40;99.90;;;9.70;100.00;96127.19;5022968;28;20833;-76
2024/01/03 05:01:00;;;;;;;5.53;1.73;;;9.30;99.90;;;9.71;100.00;96120.16;5022328;28;20874;-76
2024/01/03 05:03:29;;;;;;;10.37;2.00;;;9.20;99.90;;;9.72;100.00;96130.34;5023964;28;20465;-74
2024/01/03 05:05:57;;;;;;;11.93;2.13;;;9.30;99.90;;;9.71;100.00;96125.38;5021715;28;20458;-77
2024/01/03 05:08:27;;;;;;;5.00;1.47;;;9.30;99.90;;;9.71;100.00;96130.59;5025273;28;21116;-77
2024/01/03 05:10:55;;;;;;;7.83;2.00;;;9.30;99.90;;;9.71;100.00;96128.00;5024027;28;21038;-76
2024/01/03 05:13:25;;;;;;;11.73;2.53;;;9.30;99.90;;;9.72;100.00;96126.97;5024255;28;20466;-76
2024/01/03 05:15:55;;;;;;;10.50;1.83;;;9.30;99.90;;;9.72;100.00;96134.81;5025015;28;20458;-75
2024/01/03 05:18:23;;;;;;;11.17;2.03;;;9.30;99.90;;;9.74;100.00;96132.75;5022842;28;20466;-75
2024/01/03 05:20:52;;;;;;;6.90;2.50;;;9.30;99.90;;;9.75;100.00;96129.13;5023128;28;21011;-76
2024/01/03 05:23:21;;;;;;;8.10;1.93;;;9.40;99.90;;;9.76;100.00;96134.09;5022903;28;20944;-76
2024/01/03 05:25:49;;;;;;;9.83;2.20;;;9.30;99.90;;;9.78;100.00;96131.28;5019837;28;20473;-76
2024/01/03 05:28:18;;;;;;;13.40;2.70;;;9.40;99.90;;;9.75;100.00;96129.13;5018678;28;20470;-76
2024/01/03 05:30:46;;;;;;;7.93;1.90;;;9.30;99.90;;;9.73;100.00;96133.75;5023669;28;20460;-76
2024/01/03 05:33:16;;;;;;;7.57;1.87;;;9.40;99.90;;;9.74;100.00;96132.75;5018618;28;20474;-76
2024/01/03 05:35:45;;;;;;;18.10;3.07;;;9.40;99.90;;;9.75;100.00;96140.38;5020964;28;21109;-75
2024/01/03 05:38:14;;;;;;;15.97;1.93;;;9.40;99.90;;;9.74;100.00;96135.38;5019173;28;20458;-76
2024/01/03 05:40:42;;;;;;;7.77;1.90;;;9.40;99.90;;;9.73;100.00;96136.38;5022475;28;20498;-76
2024/01/03 05:43:12;;;;;;;5.23;2.17;;;9.30;99.90;;;9.76;100.00;96125.47;5019322;28;20497;-76
2024/01/03 05:45:41;;;;;;;5.27;1.77;;;9.40;99.90;;;9.78;100.00;96145.13;5024120;28;20947;-76
2024/01/03 05:48:09;;;;;;;15.10;1.60;;;9.40;99.90;;;9.78;100.00;96133.88;5024070;28;20511;-77
2024/01/03 05:50:40;;;;;;;9.40;1.73;;;9.40;99.90;;;9.78;100.00;96139.91;5025217;28;20461;-77
2024/01/03 05:53:08;;;;;;;8.10;1.80;;;9.50;99.90;;;9.77;100.00;96135.69;5023810;28;20543;-77
2024/01/03 05:55:37;;;;;;;10.13;1.90;;;9.50;99.90;;;9.75;100.00;96131.75;5024616;28;20469;-76
2024/01/03 05:58:05;;;;;;;5.13;1.60;;;9.30;99.90;;;9.73;100.00;96137.16;5023653;28;20966;-77
2024/01/03 06:00:34;;;;;;;7.13;1.50;;;9.40;99.90;;;9.73;100.00;96131.97;5025932;28;20458;-77
2024/01/03 06:03:03;;;;;;;12.13;2.10;;;9.40;99.90;;;9.74;100.00;96124.94;5024521;28;20520;-77
2024/01/03 06:05:32;;;;;;;7.43;1.70;;;9.40;99.90;;;9.76;100.00;96146.34;5024416;28;20545;-77
2024/01/03 06:08:02;;;;;;;7.90;1.60;;;9.40;99.90;;;9.71;100.00;96146.25;5025954;28;20474;-77
2024/01/03 06:10:30;;;;;;;5.37;1.53;;;9.30;99.90;;;9.70;100.00;96137.63;5022467;28;20522;-76
2024/01/03 06:12:59;;;;;;;7.57;1.40;;;9.20;99.90;;;9.71;100.00;96134.00;5019755;28;20472;-77
2024/01/03 06:15:27;;;;;;;4.90;1.47;;;9.30;99.90;;;9.74;100.00;96123.09;5021551;28;20762;-76
2024/01/03 06:17:55;;;;;;;7.80;1.90;;;9.40;99.90;;;9.76;100.00;96130.69;5020034;28;20468;-77
2024/01/03 06:20:24;;;;;;;4.87;1.40;;;9.30;99.90;;;9.74;100.00;96128.34;5020590;28;20540;-77
2024/01/03 06:22:53;;;;;;;3.53;1.40;;;9.30;99.90;;;9.73;100.00;96115.50;5019894;28;20493;-76
2024/01/03 06:25:23;;;;;;;15.90;2.27;;;9.40;99.90;;;9.73;100.00;96125.94;5020053;28;20497;-77
2024/01/03 06:27:53;;;;;;;8.93;1.90;;;9.30;99.90;;;9.74;100.00;96114.47;5021077;28;20474;-77
2024/01/03 06:30:22;;;;;;;4.30;1.57;;;9.40;99.90;;;9.72;100.00;96113.94;5020905;28;20529;-78
2024/01/03 06:32:51;;;;;;;4.23;1.50;;;9.30;99.90;;;9.77;100.00;96108.81;5021572;28;20463;-77
2024/01/03 06:35:20;;;;;;;8.13;2.30;;;9.30;99.90;;;9.79;100.00;96109.38;5022057;28;20469;-77
2024/01/03 06:37:48;;;;;;;11.37;2.10;;;9.50;99.90;;;9.80;100.00;96108.34;5024156;28;20999;-76
2024/01/03 06:40:17;;;;;;;11.07;2.40;;;9.40;99.90;;;9.80;100.00;96116.16;5024575;28;20971;-77
2024/01/03 06:42:47;;;;;;;12.07;2.63;;;9.40;99.90;;;9.77;100.00;96100.97;5024999;28;20501;-77
2024/01/03 06:45:15;;;;;;;15.73;2.30;;;9.50;99.90;;;9.79;100.00;96109.38;5024943;28;20458;-77
2024/01/03 06:47:44;;;;;;;3.00;1.27;;;9.40;99.90;;;9.79;100.00;96110.16;5024773;28;20470;-77
2024/01/03 06:50:13;;;;;;;7.80;1.73;;;9.40;99.90;;;9.76;100.00;96104.59;5024407;28;21520;-77
2024/01/03 06:52:42;;;;;;;6.37;1.60;;;9.40;99.90;;;9.72;100.00;96108.72;5025061;28;20471;-77
2024/01/03 06:55:10;;;;;;;10.40;1.83;;;9.30;99.90;;;9.66;100.00;96113.00;5024768;28;20485;-78
2024/01/03 06:57:39;;;;;;;11.13;2.10;;;9.30;99.90;;;9.63;100.00;96105.66;5026231;28;20540;-77
2024/01/03 07:00:11;;;;;;;8.00;1.60;;;9.20;99.90;;;9.66;100.00;96110.41;5026227;28;20457;-77
2024/01/03 07:02:39;;;;;;;2.47;1.20;;;9.30;99.90;;;9.67;100.00;96095.53;5027681;28;20839;-78
2024/01/03 07:05:08;;;;;;;6.80;1.50;;;9.20;99.90;;;9.65;100.00;96100.22;5027461;28;21047;-77
2024/01/03 07:07:37;;;;;;;1.77;0.90;;;9.20;99.90;;;9.66;100.00;96099.16;5026708;28;20466;-77
2024/01/03 07:10:07;;;;;;;4.03;1.10;;;9.20;99.90;;;9.62;100.00;96093.59;5027254;28;20519;-78
2024/01/03 07:12:37;;;;;;;4.17;1.47;;;9.20;99.90;;;9.60;100.00;96096.47;5028280;28;20466;-77
2024/01/03 07:15:07;;;;;;;3.77;1.20;;;9.10;99.90;;;9.59;100.00;96100.09;5028080;28;20914;-77
2024/01/03 07:17:37;;;;;;;3.53;1.17;;;9.20;99.90;;;9.59;100.00;96099.28;5029038;28;20808;-77
2024/01/03 07:20:07;;;;;;;3.57;1.17;;;9.20;99.90;;;9.61;100.00;96105.09;5027589;28;20961;-77
2024/01/03 07:22:36;;;;;;;1.40;0.90;;;9.20;99.90;;;9.60;100.00;96103.50;5029353;28;20492;-77
2024/01/03 07:25:04;;;;;;;5.87;1.50;;;9.10;99.90;;;9.59;100.00;96100.09;5027233;28;20458;-77
2024/01/03 07:27:33;;;;;;;4.40;1.10;;;9.20;99.90;;;9.60;100.00;96101.69;5028386;28;20466;-77
2024/01/03 07:30:01;;;;;;;1.70;0.90;;;9.20;99.90;;;9.60;100.00;96109.50;5026363;28;21047;-77
2024/01/03 07:32:30;;;;;;;1.53;0.83;;;9.20;99.90;;;9.63;100.00;96116.09;5028553;28;20505;-77
2024/01/03 07:35:00;;;;;;;1.67;0.80;;;9.20;99.90;;;9.64;100.00;96098.63;5027091;28;20494;-77
2024/01/03 07:37:29;;;;;;;5.90;0.97;;;9.20;99.90;;;9.65;100.00;96108.03;5028410;28;20454;-77
2024/01/03 07:39:57;;;;;;;3.53;1.17;;;9.20;99.90;;;9.60;100.00;96101.69;5022401;28;20459;-77
2024/01/03 07:42:26;;;;;;;3.20;1.77;;;9.20;99.90;;;9.65;100.00;96097.59;5026505;28;20469;-77
2024/01/03 07:44:54;;;;;;;2.67;1.40;;;9.20;99.90;;;9.65;100.00;96102.81;5024340;28;20475;-77
2024/01/03 07:47:23;;;;;;;7.33;1.50;;;9.20;99.90;;;9.66;100.00;96093.94;5023911;28;20465;-77
2024/01/03 07:49:51;;;;;;;7.13;1.50;;;9.20;99.90;;;9.69;100.00;96098.69;5024731;28;20485;-76
2024/01/03 07:52:21;;;;;;;2.30;1.27;;;9.20;99.90;;;9.71;100.00;96120.16;5024749;28;21022;-77
2024/01/03 07:54:54;;;;;;;4.13;1.07;;;9.30;99.90;;;9.72;100.00;96108.72;5025627;28;20473;-76
2024/01/03 07:57:22;;;;;;;3.33;1.20;;;9.30;99.90;;;9.73;100.00;96105.06;5026175;28;20454;-77
2024/01/03 07:59:51;;;;;;;4.60;1.40;;;9.40;99.90;;;9.73;100.00;96116.28;5027602;28;20476;-77
2024/01/03 08:02:20;;;;;;;7.90;1.70;;;9.40;99.90;;;9.74;100.00;96132.75;5027013;28;20973;-77
2024/01/03 08:04:48;;;;;;;3.47;1.37;;;9.40;99.90;;;9.78;100.00;96134.69;5027045;28;20505;-77
2024/01/03 08:07:17;;;;;;;4.70;1.30;;;9.40;99.90;;;9.78;100.00;96123.44;5027772;28;20470;-77
2024/01/03 08:09:47;;;;;;;3.33;1.17;;;9.50;99.90;;;9.78;100.00;96139.91;5025892;28;20454;-77
2024/01/03 08:12:15;;;;;;;3.30;1.33;;;9.40;99.90;;;9.79;100.00;96130.25;5025716;28;21591;-77
2024/01/03 08:14:44;;;;;;;3.23;1.50;;;9.40;99.90;;;9.83;100.00;96136.59;5026020;28;20466;-77
2024/01/03 08:17:12;;;;;;;5.03;1.53;;;9.50;99.90;;;9.83;100.00;96139.19;5026344;28;20465;-77
2024/01/03 08:19:41;;;;;;;4.00;1.33;;;9.40;99.90;;;9.83;100.00;96133.97;5026533;28;20940;-77
2024/01/03 08:22:10;;;;;;;2.20;1.33;;;9.50;99.90;;;9.83;100.00;96128.75;5026790;28;20490;-77
2024/01/03 08:24:38;;;;;;;4.47;1.27;;;9.40;99.90;;;9.86;100.00;96142.16;5025092;28;21026;-77
2024/01/03 08:27:08;;;;;;;3.90;1.00;;;9.50;99.90;;;9.88;100.00;96141.94;5025484;28;20462;-77
2024/01/03 08:29:38;;;;;;;8.30;1.73;;;9.50;99.90;;;9.89;100.00;96156.56;5027174;28;20470;-77
2024/01/03 08:32:08;;;;;;;3.17;1.00;;;9.50;99.90;;;9.92;100.00;96146.47;5025239;28;20493;-77
2024/01/03 08:34:37;;;;;;;3.30;1.40;;;9.50;99.90;;;9.91;100.00;96144.88;5025506;28;20830;-77
2024/01/03 08:37:05;;;;;;;3.63;1.10;;;9.60;99.90;;;9.90;100.00;96151.09;5024303;28;20466;-77
2024/01/03 08:39:34;;;;;;;6.10;0.90;;;9.50;99.90;;;9.93;100.00;96155.88;5024839;28;20878;-77
2024/01/03 08:42:02;;;;;;;12.87;2.20;;;9.50;99.90;;;9.94;100.00;96159.28;5023164;28;21450;-77
2024/01/03 08:44:32;;;;;;;2.70;1.10;;;9.40;99.90;;;9.97;100.00;96169.25;5023590;28;20552;-77
2024/01/03 08:47:01;;;;;;;3.20;1.20;;;9.60;99.90;;;9.97;100.00;96177.88;5022692;28;20466;-77
2024/01/03 08:49:30;;;;;;;6.70;1.27;;;9.70;99.90;;;9.99;100.00;96178.47;5024702;28;20461;-78
2024/01/03 08:51:58;;;;;;;4.33;2.10;;;9.60;99.90;;;10.04;100.00;96183.78;5023369;28;20470;-77
2024/01/03 08:54:27;;;;;;;8.53;2.50;;;9.60;99.90;;;10.05;100.00;96176.75;5022346;28;20480;-77
2024/01/03 08:56:56;;;;;;;8.77;2.20;;;9.60;99.90;;;10.07;100.00;96179.91;5023373;28;20474;-77
2024/01/03 08:59:24;;;;;;;8.40;2.27;;;9.70;99.90;;;10.08;100.00;96184.13;5022880;28;20470;-77
2024/01/03 09:01:56;;;;;;;2.73;1.07;;;9.70;99.90;;;10.10;100.00;96179.44;5025248;28;21024;-77
2024/01/03 09:04:24;;;;;;;15.20;1.63;;;9.70;99.90;;;10.13;100.00;96173.78;5023687;28;20548;-77
2024/01/03 09:06:53;;;;;;;9.53;1.67;;;9.70;99.90;;;10.17;100.00;96184.59;5025542;28;20460;-78
2024/01/03 09:09:22;;;;;;;7.67;1.30;;;9.70;99.90;;;10.20;100.00;96179.72;5026739;28;20501;-77
2024/01/03 09:11:51;;;;;;;2.60;1.33;;;9.80;99.90;;;10.21;100.00;96176.06;5024007;28;20485;-77
2024/01/03 09:14:20;;;;;;;9.80;1.47;;;9.70;99.90;;;10.22;100.00;96201.16;5027196;28;20565;-77
2024/01/03 09:16:48;;;;;;;2.57;1.30;;;9.70;99.90;;;10.26;100.00;96209.34;5024616;28;20458;-77
2024/01/03 09:19:18;;;;;;;7.93;1.70;;;9.80;99.90;;;10.28;100.00;96218.53;5025557;28;20473;-77
2024/01/03 09:21:47;;;;;;;8.80;1.90;;;9.80;99.90;;;10.27;100.00;96214.34;5023944;28;20486;-78
2024/01/03 09:24:16;;;;;;;3.67;1.30;;;9.80;99.90;;;10.30;100.00;96208.66;5025673;28;20497;-76
2024/01/03 09:26:44;;;;;;;4.43;1.33;;;9.90;99.90;;;10.29;100.00;96209.66;5024655;28;20470;-77
2024/01/03 09:29:13;;;;;;;8.93;1.27;;;9.80;99.90;;;10.32;100.00;96195.34;5024875;28;21063;-77
2024/01/03 09:31:45;;;;;;;9.53;1.87;;;9.80;99.90;;;10.34;100.00;96193.31;5024995;28;20906;-77
2024/01/03 09:34:13;;;;;;;8.60;2.00;;;9.80;99.90;;;10.38;100.00;96197.81;5026706;28;20461;-77
2024/01/03 09:36:43;;;;;;;4.43;1.70;;;9.90;99.90;;;10.41;100.00;96197.34;5024792;28;20463;-77
2024/01/03 09:39:12;;;;;;;6.07;2.27;;;9.90;99.90;;;10.44;100.00;96211.81;5020853;28;20465;-77
2024/01/03 09:41:42;;;;;;;5.40;1.40;;;9.90;99.90;;;10.48;100.00;96208.47;5022851;28;20457;-77
2024/01/03 09:44:11;;;;;;;11.20;1.93;;;10.10;99.90;;;10.51;100.00;96205.44;5021936;28;20914;-77
2024/01/03 09:46:40;;;;;;;4.73;1.53;;;10.10;99.90;;;10.57;100.00;96212.34;5021592;28;20470;-79
2024/01/03 09:49:10;;;;;;;5.10;1.60;;;10.20;99.90;;;10.60;100.00;96243.22;5023355;28;20882;-78
2024/01/03 09:51:43;;;;;;;4.53;1.50;;;10.20;99.90;;;10.66;100.00;96222.41;5021618;28;20453;-78
2024/01/03 09:54:12;;;;;;;2.93;1.30;;;10.20;99.90;;;10.68;100.00;96233.44;5022179;28;20999;-77
2024/01/03 09:56:43;;;;;;;11.47;1.70;;;10.30;99.90;;;10.66;100.00;96227.63;5021158;28;20517;-76
2024/01/03 09:59:11;;;;;;;11.30;1.47;;;10.10;99.90;;;10.71;100.00;96232.97;5022628;28;20489;-77
2024/01/03 10:01:40;;;;;;;6.47;1.27;;;10.30;99.90;;;10.69;100.00;96250.72;5022805;28;20814;-77
2024/01/03 10:04:08;;;;;;;4.70;1.33;;;10.20;99.90;;;10.68;100.00;96262.19;5020809;28;20493;-77
2024/01/03 10:06:52;;;;;;;5.23;1.60;;;10.40;99.90;;;10.66;100.00;96249.34;5021463;28;20479;-77
2024/01/03 10:09:22;;;;;;;4.73;1.93;;;10.20;99.90;;;10.63;100.00;96247.19;5021867;28;20855;-77
2024/01/03 10:11:53;;;;;;;9.87;1.83;;;10.20;99.90;;;10.59;100.00;96252.09;5027245;28;21244;-77
2024/01/03 10:14:23;;;;;;;9.90;2.17;;;10.10;99.90;;;10.56;100.00;96239.47;5026237;28;20513;-78
2024/01/03 10:16:52;;;;;;;8.70;2.10;;;10.10;99.90;;;10.55;100.00;96235.28;5026596;28;20463;-77
2024/01/03 10:19:22;;;;;;;15.57;2.63;;;10.10;99.90;;;10.58;100.00;96240.06;5027267;28;20466;-77
2024/01/03 10:21:54;;;;;;;6.73;1.43;;;10.20;99.90;;;10.62;100.00;96239.59;5024377;28;21211;-77
2024/01/03 10:24:25;;;;;;;6.03;1.73;;;10.20;99.90;;;10.59;100.00;96240.84;5028322;28;20543;-77
2024/01/03 10:26:55;;;;;;;6.40;2.17;;;10.00;99.90;;;10.62;100.00;96247.44;5026280;28;20980;-77
2024/01/03 10:29:24;;;;;;;7.33;1.73;;;10.20;99.90;;;10.59;100.00;96246.84;5026459;28;20461;-77
2024/01/03 10:31:53;;;;;;;17.73;1.80;;;10.10;99.90;;;10.54;100.00;96241.53;5026560;28;20527;-77